Time;durP1;ratioP1;P1;durP2;ratioP2;P2;SDS_P1;SDS_P2;PMS_P1;PMS_P2;Temp;Humidity;BMP_temperature;BMP_pressure;BME280_temperature;BME280_humidity;BME280_pressure;Samples;Min_cycle;Max_cycle;Signal;HPM_P1;HPM_P2
2023/04/14 00:01:20;;;;;;;1.65;1.55;;;;;;;7.15;100.00;98347.16;6069397;23;20530;-90
2023/04/14 00:03:46;;;;;;;6.70;3.08;;;;;;;7.11;100.00;98352.06;6070173;23;20086;-92
2023/04/14 00:06:11;;;;;;;3.20;2.53;;;;;;;7.09;100.00;98360.00;6093311;23;20088;-89
2023/04/14 00:08:37;;;;;;;2.30;2.10;;;;;;;6.92;100.00;98322.88;6046031;23;20089;-91
2023/04/14 00:11:02;;;;;;;0.93;0.90;;;;;;;6.92;100.00;98334.66;6094014;23;20018;-90
2023/04/14 00:13:28;;;;;;;0.45;0.45;;;;;;;7.01;100.00;98342.22;6069263;23;20045;-90
2023/04/14 00:15:54;;;;;;;1.73;1.15;;;;;;;6.99;100.00;98339.16;6070574;23;20129;-90
2023/04/14 00:18:19;;;;;;;2.10;1.95;;;;;;;6.93;100.00;98340.94;6093201;23;20054;-89
2023/04/14 00:20:46;;;;;;;1.55;1.45;;;;;;;6.99;100.00;98352.94;6069760;23;20022;-89
2023/04/14 00:23:11;;;;;;;1.50;1.17;;;;;;;7.00;100.00;98362.72;6093608;23;20014;-89
2023/04/14 00:25:37;;;;;;;18.95;2.72;;;;;;;6.83;100.00;98355.91;6046115;23;20006;-89
2023/04/14 00:28:03;;;;;;;1.45;1.38;;;;;;;6.99;100.00;98394.28;6095065;23;20091;-89
2023/04/14 00:30:28;;;;;;;1.10;1.10;;;;;;;6.96;100.00;98387.66;6069343;23;20308;-89
2023/04/14 00:32:55;;;;;;;1.30;1.23;;;;;;;6.94;100.00;98394.88;6092767;23;20021;-89
2023/04/14 00:35:23;;;;;;;6.03;1.90;;;;;;;6.96;100.00;98395.16;6047119;23;20033;-89
2023/04/14 00:37:50;;;;;;;0.75;0.75;;;;;;;7.04;100.00;98397.19;6068140;23;20013;-89
2023/04/14 00:40:16;;;;;;;0.77;0.77;;;;;;;6.98;100.00;98382.47;6094534;23;20018;-90
2023/04/14 00:42:46;;;;;;;0.40;0.40;;;;;;;6.97;100.00;98358.88;6093798;23;20035;-90
2023/04/14 00:45:13;;;;;;;1.13;0.85;;;;;;;6.92;100.00;98339.41;6068277;23;20423;-90
2023/04/14 00:47:40;;;;;;;0.35;0.35;;;;;;;6.93;100.00;98346.47;6094513;23;20018;-89
2023/04/14 00:50:10;;;;;;;0.30;0.30;;;;;;;6.91;100.00;98332.38;6095406;23;20102;-90
2023/04/14 00:52:36;;;;;;;1.10;1.00;;;;;;;6.81;100.00;98314.25;6072778;23;20029;-90
2023/04/14 00:55:04;;;;;;;0.93;0.93;;;;;;;6.87;100.00;98309.69;6070767;23;20010;-90
2023/04/14 00:57:29;;;;;;;3.00;0.93;;;;;;;6.67;100.00;98259.72;6095669;23;20435;-90
2023/04/14 00:59:57;;;;;;;0.55;0.55;;;;;;;6.80;100.00;98277.66;6071773;23;20018;-90
2023/04/14 01:02:22;;;;;;;0.77;0.77;;;;;;;6.80;100.00;98276.88;6119956;23;20096;-90
2023/04/14 01:04:49;;;;;;;1.40;1.30;;;;;;;6.78;100.00;98251.78;6119390;23;20036;-91
2023/04/14 01:07:15;;;;;;;1.20;1.15;;;;;;;6.77;100.00;98247.50;6095050;23;20025;-91
2023/04/14 01:09:40;;;;;;;1.30;1.25;;;;;;;6.76;100.00;98238.44;6095808;23;20009;-91
2023/04/14 01:12:19;;;;;;;1.75;1.65;;;;;;;6.77;100.00;98244.72;6071022;23;20022;-91
2023/04/14 01:14:51;;;;;;;1.38;1.20;;;;;;;6.78;100.00;98251.78;6118506;23;20104;-91
2023/04/14 01:17:34;;;;;;;1.05;1.05;;;;;;;6.76;100.00;98256.97;6072854;23;20430;-91
2023/04/14 01:20:16;;;;;;;0.63;0.50;;;;;;;6.77;100.00;98259.28;6094312;23;20104;-91
2023/04/14 01:22:47;;;;;;;0.50;0.50;;;;;;;6.76;100.00;98230.19;6120352;23;20276;-92
2023/04/14 01:25:13;;;;;;;1.15;1.13;;;;;;;6.69;100.00;98219.47;6094819;23;20443;-92
2023/04/14 01:28:08;;;;;;;1.85;1.38;;;;;;;6.77;100.00;98233.72;6119412;23;20018;-92
2023/04/14 01:30:46;;;;;;;0.30;0.30;;;;;;;6.77;100.00;98233.72;6093986;23;20018;-91
2023/04/14 01:33:15;;;;;;;1.67;1.58;;;;;;;6.69;100.00;98207.66;6070492;23;20017;-92
2023/04/14 01:35:49;;;;;;;0.57;0.57;;;;;;;6.78;100.00;98207.69;6047998;23;20014;-91
2023/04/14 01:38:21;;;;;;;0.52;0.52;;;;;;;6.76;100.00;98210.91;6094429;23;20136;-92
2023/04/14 01:40:50;;;;;;;0.73;0.73;;;;;;;6.77;100.00;98200.66;6071921;23;20089;-92
2023/04/14 01:43:16;;;;;;;0.80;0.43;;;;;;;6.79;100.00;98206.47;6047762;23;20024;-92
2023/04/14 01:45:45;;;;;;;1.05;0.98;;;;;;;6.72;100.00;98192.97;6094403;23;20109;-92
2023/04/14 01:48:11;;;;;;;1.67;1.55;;;;;;;6.74;100.00;98201.56;6072007;23;20014;-93
2023/04/14 01:50:40;;;;;;;1.38;1.27;;;;;;;6.65;100.00;98188.53;6047165;23;20113;-92
2023/04/14 01:53:06;;;;;;;0.82;0.82;;;;;;;6.75;100.00;98216.88;6094984;23;20676;-91
2023/04/14 01:55:34;;;;;;;2.92;1.70;;;;;;;6.61;100.00;98198.91;6096436;23;20010;-92
2023/04/14 01:58:01;;;;;;;0.70;0.70;;;;;;;6.76;100.00;98226.66;6094826;23;20042;-92
2023/04/14 02:00:31;;;;;;;1.90;1.80;;;;;;;6.70;100.00;98221.00;6072018;23;20041;-92
2023/04/14 02:03:00;;;;;;;0.68;0.68;;;;;;;6.54;100.00;98188.97;6070814;23;20018;-92
2023/04/14 02:05:28;;;;;;;2.35;1.83;;;;;;;6.70;100.00;98206.44;6071912;23;20006;-92
2023/04/14 02:07:54;;;;;;;1.02;1.02;;;;;;;6.45;100.00;98160.63;6095583;23;20141;-92
2023/04/14 02:10:20;;;;;;;0.55;0.55;;;;;;;6.60;100.00;98191.88;6070792;23;20033;-92
2023/04/14 02:12:47;;;;;;;0.40;0.40;;;;;;;6.70;100.00;98211.97;6072170;23;20017;-93
2023/04/14 02:15:16;;;;;;;2.05;1.85;;;;;;;6.44;100.00;98162.59;6069507;23;20045;-93
2023/04/14 02:17:43;;;;;;;2.28;0.70;;;;;;;6.67;100.00;98185.31;6095333;23;20041;-93
2023/04/14 02:20:10;;;;;;;1.58;1.48;;;;;;;6.70;100.00;98200.94;6095033;23;20438;-92
2023/04/14 02:22:36;;;;;;;0.57;0.57;;;;;;;6.65;100.00;98199.53;6071049;23;20085;-94
2023/04/14 02:25:01;;;;;;;1.55;1.27;;;;;;;6.68;100.00;98198.63;6071652;23;20037;-93
2023/04/14 02:27:37;;;;;;;2.42;1.90;;;;;;;6.66;100.00;98211.34;6071487;23;20342;-93
2023/04/14 02:30:13;;;;;;;0.75;0.75;;;;;;;6.46;100.00;98182.19;6094919;23;20034;-91
2023/04/14 02:32:41;;;;;;;1.05;1.05;;;;;;;6.66;100.00;98214.88;6094465;23;20017;-93
2023/04/14 02:35:11;;;;;;;0.88;0.88;;;;;;;6.67;100.00;98210.13;6070275;23;20375;-93
2023/04/14 02:37:47;;;;;;;0.73;0.73;;;;;;;6.51;100.00;98181.59;6048757;23;20439;-93
2023/04/14 02:40:28;;;;;;;1.38;1.27;;;;;;;6.67;100.00;98183.34;6094969;23;20033;-93
2023/04/14 02:43:00;;;;;;;1.73;1.63;;;;;;;6.54;100.00;98169.69;6119123;23;20072;-93
2023/04/14 02:45:27;;;;;;;1.45;1.35;;;;;;;6.67;100.00;98179.81;6094405;23;20006;-93
2023/04/14 02:47:57;;;;;;;0.40;0.40;;;;;;;6.63;100.00;98184.69;6070917;23;20018;-93
2023/04/14 02:50:23;;;;;;;0.38;0.38;;;;;;;6.64;100.00;98169.69;6096177;23;20096;-93
2023/04/14 02:53:09;;;;;;;0.82;0.82;;;;;;;6.67;100.00;98179.81;6119783;23;20018;-92
2023/04/14 02:55:36;;;;;;;1.90;1.75;;;;;;;6.59;100.00;98175.81;6071694;23;20021;-94
2023/04/14 02:58:02;;;;;;;0.45;0.45;;;;;;;6.64;100.00;98186.22;6046359;23;20093;-92
2023/04/14 03:00:30;;;;;;;1.45;0.80;;;;;;;6.65;100.00;98187.75;6117885;23;20386;-93
2023/04/14 03:02:58;;;;;;;0.60;0.60;;;;;;;6.63;100.00;98182.72;6094970;23;20014;-93
2023/04/14 03:05:24;;;;;;;1.63;1.52;;;;;;;6.62;100.00;98172.16;6045974;23;20021;-93
2023/04/14 03:08:03;;;;;;;0.93;0.88;;;;;;;6.65;100.00;98162.97;6073663;23;20426;-92
2023/04/14 03:10:29;;;;;;;1.08;1.08;;;;;;;6.66;100.00;98161.75;6094337;23;20103;-92
2023/04/14 03:12:57;;;;;;;0.70;0.70;;;;;;;6.57;100.00;98145.97;6046675;23;20109;-92
2023/04/14 03:15:23;;;;;;;0.32;0.32;;;;;;;6.66;100.00;98161.75;6094936;23;20029;-93
2023/04/14 03:17:52;;;;;;;0.68;0.68;;;;;;;6.60;100.00;98169.84;6046362;23;20021;-92
2023/04/14 03:20:20;;;;;;;1.98;0.95;;;;;;;6.55;100.00;98168.44;6072643;23;20034;-93
2023/04/14 03:22:49;;;;;;;1.80;1.67;;;;;;;6.60;100.00;98185.59;6070193;23;20084;-94
2023/04/14 03:25:14;;;;;;;1.17;1.13;;;;;;;6.54;100.00;98188.97;6094078;23;20049;-94
2023/04/14 03:27:44;;;;;;;0.73;0.73;;;;;;;6.45;100.00;98175.16;6072023;23;20020;-93
2023/04/14 03:30:11;;;;;;;0.85;0.75;;;;;;;6.41;100.00;98180.03;6093953;23;20065;-94
2023/04/14 03:32:40;;;;;;;1.30;1.20;;;;;;;6.33;100.00;98161.50;6094913;23;20088;-95
2023/04/14 03:35:11;;;;;;;1.67;1.50;;;;;;;6.45;100.00;98179.91;6070158;23;20550;-94
2023/04/14 03:37:38;;;;;;;2.20;1.10;;;;;;;6.44;100.00;98181.09;6094671;23;20056;-94
2023/04/14 03:40:07;;;;;;;0.73;0.73;;;;;;;6.48;100.00;98185.25;6119869;23;20022;-95
2023/04/14 03:42:35;;;;;;;1.08;0.57;;;;;;;6.34;100.00;98155.53;6094411;23;20022;-93
2023/04/14 03:45:02;;;;;;;0.82;0.82;;;;;;;6.48;100.00;98196.28;6094538;23;20528;-94
2023/04/14 03:47:31;;;;;;;0.63;0.63;;;;;;;6.29;100.00;98167.13;6094192;23;20029;-93
2023/04/14 03:50:00;;;;;;;0.38;0.38;;;;;;;6.30;100.00;98156.91;6070391;23;20121;-93
2023/04/14 03:52:31;;;;;;;0.82;0.82;;;;;;;6.33;100.00;98167.00;6095140;23;20041;-93
2023/04/14 03:54:59;;;;;;;0.43;0.43;;;;;;;6.29;100.00;98161.63;6093643;23;20455;-93
2023/04/14 03:57:25;;;;;;;0.30;0.20;;;;;;;6.28;100.00;98159.31;6072117;23;20045;-93
2023/04/14 03:59:52;;;;;;;0.32;0.32;;;;;;;6.44;100.00;98194.88;6118375;23;20025;-93
2023/04/14 04:02:22;;;;;;;0.10;0.10;;;;;;;6.32;100.00;98180.00;6071388;23;20017;-93
2023/04/14 04:04:48;;;;;;;0.73;0.73;;;;;;;6.38;100.00;98186.47;6094525;23;20006;-93
2023/04/14 04:07:14;;;;;;;0.65;0.65;;;;;;;6.07;100.00;98133.38;6069590;23;20073;-94
2023/04/14 04:09:41;;;;;;;0.08;0.08;;;;;;;6.28;100.00;98162.84;6095747;23;20038;-93
2023/04/14 04:12:08;;;;;;;0.73;0.73;;;;;;;6.13;100.00;98139.84;6093835;23;20018;-93
2023/04/14 04:14:38;;;;;;;1.17;0.63;;;;;;;6.39;100.00;98187.97;6069739;23;20420;-93
2023/04/14 04:17:06;;;;;;;1.00;0.93;;;;;;;6.17;100.00;98147.97;6071318;23;20017;-93
2023/04/14 04:19:33;;;;;;;0.30;0.30;;;;;;;6.40;100.00;98183.22;6094366;23;20461;-93
2023/04/14 04:22:00;;;;;;;0.20;0.20;;;;;;;6.11;100.00;98150.53;6071119;23;20018;-93
2023/04/14 04:24:29;;;;;;;1.08;0.98;;;;;;;6.03;100.00;98157.53;6071747;23;20010;-92
2023/04/14 04:26:56;;;;;;;0.28;0.20;;;;;;;6.29;100.00;98208.44;6119757;23;20453;-92
2023/04/14 04:29:22;;;;;;;0.10;0.10;;;;;;;6.22;100.00;98211.47;6096397;23;20022;-93
2023/04/14 04:31:48;;;;;;;0.25;0.25;;;;;;;6.06;100.00;98179.44;6070826;23;20028;-91
2023/04/14 04:34:15;;;;;;;0.28;0.28;;;;;;;6.14;100.00;98198.44;6096829;23;20040;-93
2023/04/14 04:36:42;;;;;;;0.38;0.38;;;;;;;6.21;100.00;98203.66;6095981;23;20021;-93
2023/04/14 04:39:08;;;;;;;0.00;0.00;;;;;;;6.13;100.00;98191.38;6071696;23;20017;-93
2023/04/14 04:41:38;;;;;;;0.10;0.10;;;;;;;5.99;100.00;98157.66;6050691;23;20014;-93
2023/04/14 04:44:04;;;;;;;0.30;0.30;;;;;;;6.08;100.00;98189.97;6120256;23;20013;-92
2023/04/14 04:46:53;;;;;;;0.00;0.00;;;;;;;6.19;100.00;98217.88;6071363;23;20494;-93
2023/04/14 04:49:22;;;;;;;0.05;0.05;;;;;;;5.93;100.00;98189.00;6089618;23;20209;-92
2023/04/14 04:51:48;;;;;;;2.03;0.82;;;;;;;6.19;100.00;98228.13;6068719;23;20089;-92
2023/04/14 04:54:17;;;;;;;0.00;0.00;;;;;;;5.93;100.00;98194.50;6115434;23;20033;-93
2023/04/14 04:56:43;;;;;;;0.77;0.77;;;;;;;6.09;100.00;98224.56;6118390;23;20085;-92
2023/04/14 04:59:08;;;;;;;0.35;0.35;;;;;;;5.91;100.00;98207.91;6092823;23;20010;-94
2023/04/14 05:01:34;;;;;;;1.30;0.43;;;;;;;6.10;100.00;98234.34;6091770;23;20014;-94
2023/04/14 05:04:00;;;;;;;0.52;0.47;;;;;;;6.08;100.00;98251.31;6092484;23;20096;-93
2023/04/14 05:06:27;;;;;;;0.75;0.75;;;;;;;5.93;100.00;98209.03;6118173;23;20387;-93
2023/04/14 05:08:56;;;;;;;0.00;0.00;;;;;;;6.11;100.00;98255.13;6092906;23;20215;-93
2023/04/14 05:11:22;;;;;;;1.35;1.25;;;;;;;5.95;100.00;98241.59;6094119;23;20018;-93
2023/04/14 05:13:47;;;;;;;0.00;0.00;;;;;;;5.79;100.00;98233.50;6094902;23;20028;-92
2023/04/14 05:16:13;;;;;;;0.45;0.32;;;;;;;6.08;100.00;98289.84;6070150;23;20446;-91
2023/04/14 05:18:39;;;;;;;0.63;0.63;;;;;;;6.05;100.00;98278.97;6117783;23;20010;-91
2023/04/14 05:21:07;;;;;;;0.45;0.45;;;;;;;5.90;100.00;98266.94;6096586;23;20010;-92
2023/04/14 05:23:33;;;;;;;0.60;0.43;;;;;;;5.83;100.00;98245.91;6097829;23;20014;-91
2023/04/14 05:25:59;;;;;;;7.28;1.27;;;;;;;5.91;100.00;98265.72;6121372;23;20006;-91
2023/04/14 05:28:25;;;;;;;0.20;0.20;;;;;;;5.97;100.00;98277.69;6072924;23;20020;-91
2023/04/14 05:30:51;;;;;;;0.30;0.30;;;;;;;5.80;100.00;98257.03;6093769;23;20002;-91
2023/04/14 05:33:18;;;;;;;0.85;0.85;;;;;;;5.77;100.00;98250.47;6119232;23;20010;-91
2023/04/14 05:35:44;;;;;;;0.35;0.22;;;;;;;5.75;100.00;98263.13;6093756;23;20018;-92
2023/04/14 05:38:11;;;;;;;0.17;0.17;;;;;;;5.70;100.00;98258.22;6095062;23;20025;-91
2023/04/14 05:40:37;;;;;;;0.00;0.00;;;;;;;5.84;100.00;98263.19;6070046;23;20024;-91
2023/04/14 05:43:03;;;;;;;0.10;0.10;;;;;;;5.47;100.00;98205.16;6069868;23;20014;-90
2023/04/14 05:45:29;;;;;;;0.55;0.55;;;;;;;5.53;100.00;98222.63;6094690;23;20021;-90
2023/04/14 05:47:54;;;;;;;0.05;0.05;;;;;;;5.52;100.00;98201.84;6097020;23;20457;-91
2023/04/14 05:50:23;;;;;;;0.75;0.40;;;;;;;5.59;100.00;98209.84;6120817;23;20010;-90
2023/04/14 05:52:49;;;;;;;0.93;0.68;;;;;;;5.36;100.00;98174.53;6119974;23;20077;-91
2023/04/14 05:55:15;;;;;;;0.05;0.05;;;;;;;5.53;100.00;98194.38;6094082;23;20017;-90
2023/04/14 05:57:41;;;;;;;0.68;0.68;;;;;;;5.37;100.00;98191.78;6071400;23;20509;-91
2023/04/14 06:00:07;;;;;;;0.00;0.00;;;;;;;5.33;100.00;98191.91;6120396;23;20010;-90
2023/04/14 06:02:38;;;;;;;0.50;0.50;;;;;;;5.53;100.00;98205.38;6121902;23;20017;-90
2023/04/14 06:05:06;;;;;;;0.20;0.20;;;;;;;5.41;100.00;98193.22;6071615;23;20033;-91
2023/04/14 06:07:35;;;;;;;0.20;0.20;;;;;;;5.48;100.00;98203.94;6097226;23;20025;-91
2023/04/14 06:10:05;;;;;;;0.17;0.17;;;;;;;5.40;100.00;98194.41;6096604;23;20022;-90
2023/04/14 06:12:38;;;;;;;0.03;0.03;;;;;;;5.41;100.00;98206.97;6097829;23;20078;-90
2023/04/14 06:15:05;;;;;;;0.10;0.10;;;;;;;5.09;100.00;98182.56;6095407;23;20018;-90
2023/04/14 06:17:31;;;;;;;0.00;0.00;;;;;;;5.32;100.00;98217.88;6096698;23;20105;-91
2023/04/14 06:19:57;;;;;;;0.00;0.00;;;;;;;5.20;100.00;98202.19;6095714;23;20490;-91
2023/04/14 06:22:27;;;;;;;0.00;0.00;;;;;;;5.24;100.00;98219.34;6093703;23;20014;-91
2023/04/14 06:24:53;;;;;;;0.10;0.10;;;;;;;5.33;100.00;98230.41;6095797;23;20343;-89
2023/04/14 06:27:25;;;;;;;0.10;0.10;;;;;;;5.15;100.00;98213.75;6095631;23;20006;-91
2023/04/14 06:29:51;;;;;;;0.28;0.28;;;;;;;5.23;100.00;98233.50;6071103;23;20018;-91
2023/04/14 06:32:20;;;;;;;0.20;0.20;;;;;;;5.18;100.00;98228.59;6095080;23;20021;-89
2023/04/14 06:34:48;;;;;;;0.10;0.10;;;;;;;5.25;100.00;98236.59;6047754;23;20479;-91
2023/04/14 06:37:15;;;;;;;0.03;0.03;;;;;;;5.18;100.00;98229.34;6070624;23;20407;-91
2023/04/14 06:39:40;;;;;;;0.00;0.00;;;;;;;5.33;100.00;98240.63;6095097;23;20028;-91
2023/04/14 06:42:06;;;;;;;0.00;0.00;;;;;;;5.26;100.00;98229.91;6046700;23;20017;-91
2023/04/14 06:44:32;;;;;;;0.00;0.00;;;;;;;5.23;100.00;98234.28;6071616;23;20546;-90
2023/04/14 06:46:58;;;;;;;0.00;0.00;;;;;;;5.25;100.00;98239.34;6069788;23;20360;-91
2023/04/14 06:49:26;;;;;;;0.00;0.00;;;;;;;5.30;100.00;98242.28;6095677;23;20002;-91
2023/04/14 06:51:52;;;;;;;0.10;0.10;;;;;;;5.13;100.00;98210.69;6121449;23;20501;-91
2023/04/14 06:54:17;;;;;;;0.00;0.00;;;;;;;5.25;100.00;98231.88;6068827;23;20010;-91
2023/04/14 06:56:43;;;;;;;0.10;0.10;;;;;;;5.05;100.00;98203.91;6046563;23;20332;-91
2023/04/14 06:59:08;;;;;;;0.10;0.10;;;;;;;5.23;100.00;98236.25;6047136;23;20013;-91
2023/04/14 07:01:34;;;;;;;0.75;0.38;;;;;;;5.26;100.00;98241.63;6094423;23;20028;-91
2023/04/14 07:04:02;;;;;;;0.00;0.00;;;;;;;5.17;100.00;98233.31;6070847;23;20073;-92
2023/04/14 07:06:27;;;;;;;0.13;0.13;;;;;;;5.29;100.00;98243.50;6096169;23;20018;-91
2023/04/14 07:08:56;;;;;;;0.10;0.10;;;;;;;5.07;100.00;98212.44;6071724;23;20010;-91
2023/04/14 07:11:22;;;;;;;0.00;0.00;;;;;;;5.02;100.00;98202.00;6070805;23;20033;-92
2023/04/14 07:13:47;;;;;;;0.38;0.38;;;;;;;5.29;100.00;98251.75;6072469;23;20355;-92
2023/04/14 07:16:13;;;;;;;0.00;0.00;;;;;;;5.32;100.00;98248.13;6070655;23;20473;-93
2023/04/14 07:18:38;;;;;;;0.15;0.15;;;;;;;5.30;100.00;98239.53;6070743;23;20029;-91
2023/04/14 07:21:04;;;;;;;0.10;0.10;;;;;;;4.88;100.00;98177.78;6095574;23;20021;-92
2023/04/14 07:23:29;;;;;;;0.30;0.30;;;;;;;5.03;100.00;98198.84;6072035;23;20018;-92
2023/04/14 07:25:56;;;;;;;0.17;0.17;;;;;;;5.20;100.00;98226.16;6096394;23;20041;-91
2023/04/14 07:28:23;;;;;;;0.65;0.63;;;;;;;4.94;100.00;98186.97;6096465;23;20431;-91
2023/04/14 07:30:49;;;;;;;0.22;0.22;;;;;;;4.87;100.00;98182.50;6047710;23;20026;-92
2023/04/14 07:33:21;;;;;;;0.28;0.28;;;;;;;4.94;100.00;98190.50;6072000;23;20037;-91
2023/04/14 07:35:48;;;;;;;0.00;0.00;;;;;;;5.27;100.00;98248.66;6050690;23;20018;-91
2023/04/14 07:38:14;;;;;;;0.08;0.08;;;;;;;5.01;100.00;98226.00;6074102;23;20010;-92
2023/04/14 07:40:40;;;;;;;0.00;0.00;;;;;;;5.21;100.00;98258.72;6074107;23;20458;-93
2023/04/14 07:43:06;;;;;;;0.10;0.10;;;;;;;5.14;100.00;98267.16;6096581;23;20084;-92
2023/04/14 07:45:32;;;;;;;0.17;0.17;;;;;;;5.15;100.00;98271.47;6071139;23;20085;-92
2023/04/14 07:47:57;;;;;;;0.00;0.00;;;;;;;5.08;100.00;98257.97;6095735;23;20022;-92
2023/04/14 07:50:23;;;;;;;0.10;0.10;;;;;;;5.14;100.00;98286.41;6071658;23;20407;-92
2023/04/14 07:52:49;;;;;;;0.05;0.05;;;;;;;5.05;100.00;98302.81;6048837;23;20014;-91
2023/04/14 07:55:14;;;;;;;0.00;0.00;;;;;;;4.97;100.00;98285.81;6070624;23;20100;-92
2023/04/14 07:57:40;;;;;;;1.00;0.57;;;;;;;5.00;100.00;98295.13;6046337;23;20029;-93
2023/04/14 08:00:08;;;;;;;0.52;0.52;;;;;;;5.08;100.00;98288.19;6069039;23;20063;-92
2023/04/14 08:02:40;;;;;;;0.30;0.30;;;;;;;4.96;100.00;98276.00;6051123;23;20018;-94
2023/04/14 08:05:05;;;;;;;0.00;0.00;;;;;;;5.11;100.00;98295.53;6047418;23;20006;-93
2023/04/14 08:07:32;;;;;;;0.22;0.22;;;;;;;4.91;100.00;98260.06;6095011;23;20061;-92
2023/04/14 08:09:58;;;;;;;0.30;0.30;;;;;;;5.07;100.00;98294.88;6095977;23;20022;-92
2023/04/14 08:12:24;;;;;;;0.38;0.38;;;;;;;5.12;100.00;98314.34;6096711;23;20057;-92
2023/04/14 08:14:51;;;;;;;0.10;0.10;;;;;;;4.93;100.00;98284.38;6071761;23;20018;-92
2023/04/14 08:17:17;;;;;;;0.00;0.00;;;;;;;5.02;100.00;98298.19;6095793;23;20032;-92
2023/04/14 08:19:42;;;;;;;0.10;0.10;;;;;;;5.07;100.00;98316.88;6094987;23;20101;-92
2023/04/14 08:22:08;;;;;;;0.38;0.35;;;;;;;5.05;100.00;98302.81;6120934;23;20018;-92
2023/04/14 08:24:34;;;;;;;0.20;0.20;;;;;;;5.16;100.00;98304.00;6071158;23;20021;-93
2023/04/14 08:27:01;;;;;;;0.30;0.30;;;;;;;4.82;100.00;98248.97;6094601;23;20006;-93
2023/04/14 08:29:27;;;;;;;1.75;0.95;;;;;;;5.12;100.00;98288.84;6121668;23;20030;-92
2023/04/14 08:31:52;;;;;;;0.40;0.40;;;;;;;5.08;100.00;98285.44;6120229;23;20139;-92
2023/04/14 08:34:18;;;;;;;1.65;1.10;;;;;;;4.98;100.00;98264.56;6071144;23;20464;-92
2023/04/14 08:36:43;;;;;;;0.52;0.52;;;;;;;5.16;100.00;98297.75;6072819;23;20454;-92
2023/04/14 08:39:09;;;;;;;0.20;0.20;;;;;;;5.12;100.00;98280.59;6094982;23;20014;-92
2023/04/14 08:41:37;;;;;;;0.17;0.17;;;;;;;5.21;100.00;98294.44;6121531;23;20032;-91
2023/04/14 08:44:03;;;;;;;0.10;0.10;;;;;;;5.04;100.00;98273.81;6071627;23;20022;-91
2023/04/14 08:46:30;;;;;;;0.00;0.00;;;;;;;5.22;100.00;98290.47;6048230;23;20088;-91
2023/04/14 08:49:04;;;;;;;0.08;0.08;;;;;;;5.25;100.00;98281.34;6093530;23;20076;-92
2023/04/14 08:51:31;;;;;;;0.68;0.68;;;;;;;5.40;100.00;98301.66;6093220;23;20779;-91
2023/04/14 08:53:57;;;;;;;0.52;0.52;;;;;;;5.31;100.00;98276.81;6093703;23;20009;-91
2023/04/14 08:56:24;;;;;;;0.10;0.10;;;;;;;5.47;100.00;98295.91;6094805;23;20010;-91
2023/04/14 08:58:49;;;;;;;0.00;0.00;;;;;;;5.16;100.00;98262.78;6094876;23;20025;-91
2023/04/14 09:01:15;;;;;;;0.00;0.00;;;;;;;5.15;100.00;98279.72;6091118;23;20009;-92
2023/04/14 09:03:42;;;;;;;0.17;0.17;;;;;;;5.42;100.00;98321.22;6093133;23;20339;-91
2023/04/14 09:06:08;;;;;;;0.10;0.10;;;;;;;5.22;100.00;98287.72;6093198;23;20018;-92
2023/04/14 09:08:34;;;;;;;0.10;0.10;;;;;;;5.28;100.00;98301.69;6118123;23;20361;-93
2023/04/14 09:11:03;;;;;;;0.10;0.10;;;;;;;5.48;100.00;98332.44;6094852;23;20006;-92
2023/04/14 09:13:30;;;;;;;0.57;0.57;;;;;;;5.40;100.00;98320.13;6095526;23;20049;-91
2023/04/14 09:15:56;;;;;;;0.10;0.10;;;;;;;5.42;100.00;98317.72;6072060;23;20101;-92
2023/04/14 09:18:22;;;;;;;0.00;0.00;;;;;;;5.42;100.00;98331.47;6124049;23;20254;-92
2023/04/14 09:20:48;;;;;;;0.00;0.00;;;;;;;5.36;100.00;98333.22;6073037;23;20014;-91
2023/04/14 09:23:13;;;;;;;0.20;0.20;;;;;;;5.29;100.00;98331.47;6096286;23;20085;-91
2023/04/14 09:25:40;;;;;;;0.00;0.00;;;;;;;5.43;100.00;98354.97;6097263;23;20010;-92
2023/04/14 09:28:06;;;;;;;0.98;0.90;;;;;;;5.25;100.00;98332.81;6122777;23;20041;-91
2023/04/14 09:30:32;;;;;;;0.63;0.63;;;;;;;5.22;100.00;98339.94;6122709;23;20009;-92
2023/04/14 09:32:57;;;;;;;0.00;0.00;;;;;;;5.22;100.00;98345.44;6097585;23;20393;-91
2023/04/14 09:35:42;;;;;;;0.00;0.00;;;;;;;5.25;100.00;98333.59;6096945;23;20455;-92
2023/04/14 09:38:07;;;;;;;0.10;0.10;;;;;;;5.35;100.00;98348.16;6096844;23;20158;-93
2023/04/14 09:40:33;;;;;;;0.00;0.00;;;;;;;5.35;100.00;98343.44;6073710;23;20604;-92
2023/04/14 09:42:59;;;;;;;0.28;0.28;;;;;;;5.51;100.00;98367.28;6123220;23;20036;-91
2023/04/14 09:45:43;;;;;;;0.00;0.00;;;;;;;5.52;100.00;98364.09;6096005;23;20022;-92
2023/04/14 09:48:11;;;;;;;0.00;0.00;;;;;;;5.50;100.00;98344.50;6097369;23;20014;-92
2023/04/14 09:51:05;;;;;;;0.08;0.08;;;;;;;5.57;100.00;98349.03;6073114;23;20032;-92
2023/04/14 09:53:35;;;;;;;0.00;0.00;;;;;;;5.49;100.00;98326.50;6094510;23;20045;-92
2023/04/14 09:56:09;;;;;;;0.00;0.00;;;;;;;5.68;100.00;98349.41;6096940;23;20024;-91
2023/04/14 09:58:35;;;;;;;;;;;;;;;5.82;100.00;98353.69;6097795;23;20021;-92
2023/04/14 10:01:11;;;;;;;0.00;0.00;;;;;;;5.76;100.00;98316.94;6096261;23;19951;-92
2023/04/14 10:03:45;;;;;;;0.00;0.00;;;;;;;5.99;100.00;98335.78;6097292;23;20064;-92
2023/04/14 10:06:19;;;;;;;0.03;0.03;;;;;;;6.07;100.00;98339.81;6097045;23;20010;-92
2023/04/14 10:08:48;;;;;;;;;;;;;;;5.98;100.00;98339.78;6074319;23;20017;-92
2023/04/14 10:11:28;;;;;;;0.00;0.00;;;;;;;5.89;100.00;98332.22;6097108;23;19913;-92
2023/04/14 10:14:02;;;;;;;0.00;0.00;;;;;;;5.92;100.00;98345.06;6096549;23;20576;-92
2023/04/14 10:16:28;;;;;;;0.00;0.00;;;;;;;5.90;100.00;98366.00;6096762;23;20101;-92
2023/04/14 10:18:54;;;;;;;0.10;0.10;;;;;;;5.82;100.00;98354.44;6072446;23;20044;-92
2023/04/14 10:21:23;;;;;;;0.00;0.00;;;;;;;5.86;100.00;98365.34;6048487;23;20049;-92
2023/04/14 10:23:50;;;;;;;0.10;0.10;;;;;;;5.90;100.00;98366.00;6073363;23;20481;-92
2023/04/14 10:26:16;;;;;;;0.00;0.00;;;;;;;5.85;100.00;98380.31;6096583;23;20014;-92
2023/04/14 10:28:50;;;;;;;0.00;0.00;;;;;;;5.84;100.00;98390.53;6072523;23;20014;-92
2023/04/14 10:31:32;;;;;;;0.25;0.25;;;;;;;5.94;100.00;98394.94;6095871;23;20010;-92
2023/04/14 10:33:57;;;;;;;0.13;0.13;;;;;;;5.93;100.00;98401.66;6096382;23;20477;-92
2023/04/14 10:36:24;;;;;;;0.10;0.10;;;;;;;5.96;100.00;98406.28;6072806;23;20037;-92
2023/04/14 10:38:57;;;;;;;0.00;0.00;;;;;;;5.96;100.00;98408.25;6097127;23;20042;-92
2023/04/14 10:41:23;;;;;;;0.00;0.00;;;;;;;6.03;100.00;98419.00;6071816;23;20017;-91
2023/04/14 10:43:48;;;;;;;0.00;0.00;;;;;;;6.01;100.00;98419.47;6122384;23;20518;-91
2023/04/14 10:46:15;;;;;;;0.00;0.00;;;;;;;5.94;100.00;98424.44;6071797;23;20097;-91
2023/04/14 10:48:45;;;;;;;0.00;0.00;;;;;;;6.05;100.00;98435.84;6096466;23;20014;-91
2023/04/14 10:51:11;;;;;;;0.00;0.00;;;;;;;6.09;100.00;98444.75;6096119;23;20017;-91
2023/04/14 10:53:43;;;;;;;1.05;1.05;;;;;;;6.18;100.00;98444.84;6096755;23;20006;-91
2023/04/14 10:56:09;;;;;;;0.13;0.13;;;;;;;6.20;100.00;98447.16;6122620;23;20113;-92
2023/04/14 10:58:35;;;;;;;0.28;0.28;;;;;;;6.20;100.00;98442.41;6096870;23;20430;-91
2023/04/14 11:01:30;;;;;;;0.00;0.00;;;;;;;6.35;100.00;98451.72;6121726;23;20112;-91
2023/04/14 11:03:57;;;;;;;0.22;0.22;;;;;;;6.32;100.00;98458.13;6047990;23;20029;-91
2023/04/14 11:06:45;;;;;;;0.00;0.00;;;;;;;6.26;100.00;98454.41;6096782;23;20029;-91
2023/04/14 11:09:29;;;;;;;0.00;0.00;;;;;;;6.27;100.00;98455.19;6120252;23;20014;-92
2023/04/14 11:11:57;;;;;;;;;;;;;;;6.34;100.00;98461.22;6122374;23;20014;-91
2023/04/14 11:14:28;;;;;;;0.00;0.00;;;;;;;6.34;100.00;98452.94;6096604;23;19916;-91
2023/04/14 11:17:03;;;;;;;0.00;0.00;;;;;;;6.40;100.00;98462.16;6095877;23;20014;-92
2023/04/14 11:19:30;;;;;;;0.10;0.10;;;;;;;6.34;100.00;98460.44;6095709;23;20342;-91
2023/04/14 11:21:56;;;;;;;0.00;0.00;;;;;;;6.39;100.00;98471.63;6094398;23;20028;-91
2023/04/14 11:24:22;;;;;;;0.20;0.20;;;;;;;6.39;100.00;98468.88;6095748;23;20436;-91
2023/04/14 11:26:54;;;;;;;0.30;0.30;;;;;;;6.30;100.00;98470.81;6072252;23;20386;-92
2023/04/14 11:29:21;;;;;;;0.03;0.03;;;;;;;6.20;100.00;98469.16;6095578;23;20053;-92
2023/04/14 11:32:02;;;;;;;0.00;0.00;;;;;;;6.14;100.00;98462.72;6095586;23;20014;-91
2023/04/14 11:34:27;;;;;;;0.47;0.47;;;;;;;6.17;100.00;98465.34;6095746;23;20022;-91
2023/04/14 11:36:53;;;;;;;0.13;0.13;;;;;;;6.15;100.00;98461.50;6047172;23;20013;-92
2023/04/14 11:39:19;;;;;;;0.20;0.20;;;;;;;6.07;100.00;98467.22;6047621;23;20018;-92